Time;durP1;ratioP1;P1;durP2;ratioP2;P2;SDS_P1;SDS_P2;PMS_P1;PMS_P2;Temp;Humidity;BMP_temperature;BMP_pressure;BME280_temperature;BME280_humidity;BME280_pressure;Samples;Min_cycle;Max_cycle;Signal;HPM_P1;HPM_P2
2021/12/09 00:01:03;;;;;;;14.30;6.40;;;2.00;99.90;;;;;;4962021;28;20057;-66
2021/12/09 00:03:34;;;;;;;13.93;6.35;;;2.00;99.90;;;;;;4963273;28;20554;-66
2021/12/09 00:06:01;;;;;;;11.30;6.28;;;2.10;99.90;;;;;;4954454;28;20383;-66
2021/12/09 00:08:29;;;;;;;11.63;6.90;;;2.00;99.90;;;;;;4963658;28;20035;-66
2021/12/09 00:10:57;;;;;;;16.25;6.85;;;2.00;99.90;;;;;;4958864;28;20422;-66
2021/12/09 00:13:24;;;;;;;12.40;6.90;;;2.00;99.90;;;;;;4962582;28;20082;-66
2021/12/09 00:15:50;;;;;;;12.20;6.80;;;2.00;99.90;;;;;;4959720;28;20452;-66
2021/12/09 00:18:17;;;;;;;11.85;6.60;;;2.00;99.90;;;;;;4955453;28;20109;-66
2021/12/09 00:20:43;;;;;;;13.45;7.57;;;2.00;99.90;;;;;;4961327;28;20070;-66
2021/12/09 00:23:08;;;;;;;13.98;6.75;;;2.00;99.90;;;;;;4956313;28;20075;-66
2021/12/09 00:25:35;;;;;;;12.82;7.25;;;2.00;99.90;;;;;;4965617;28;20042;-66
2021/12/09 00:28:02;;;;;;;10.77;7.15;;;2.00;99.90;;;;;;4955204;28;20035;-66
2021/12/09 00:30:30;;;;;;;12.00;7.05;;;2.00;99.90;;;;;;4961078;28;20147;-66
2021/12/09 00:32:56;;;;;;;9.43;6.95;;;2.00;99.90;;;;;;4957805;28;20043;-66
2021/12/09 00:35:28;;;;;;;17.15;7.40;;;2.00;99.90;;;;;;4961635;28;20055;-66
2021/12/09 00:37:59;;;;;;;12.88;7.68;;;2.00;99.90;;;;;;4955921;28;20511;-66
2021/12/09 00:40:25;;;;;;;13.52;7.53;;;2.00;99.90;;;;;;4964984;28;20121;-66
2021/12/09 00:42:50;;;;;;;11.98;7.03;;;2.00;99.90;;;;;;4957489;28;20507;-66
2021/12/09 00:45:17;;;;;;;13.73;7.45;;;2.00;99.90;;;;;;4963421;28;20038;-66
2021/12/09 00:47:43;;;;;;;17.20;8.07;;;1.90;99.90;;;;;;4942584;28;20051;-66
2021/12/09 00:50:10;;;;;;;15.43;8.23;;;1.90;99.90;;;;;;4961329;28;20558;-66
2021/12/09 00:52:36;;;;;;;14.80;7.78;;;1.90;99.90;;;;;;4951420;28;20122;-66
2021/12/09 00:55:04;;;;;;;12.45;8.18;;;1.90;99.90;;;;;;4946754;28;20054;-66
2021/12/09 00:57:30;;;;;;;13.70;7.88;;;1.90;99.90;;;;;;4949535;28;20441;-66
2021/12/09 00:59:56;;;;;;;18.23;8.55;;;1.90;99.90;;;;;;4958619;28;20054;-66
2021/12/09 01:02:22;;;;;;;13.30;7.88;;;1.80;99.90;;;;;;4964244;28;20403;-65
2021/12/09 01:04:47;;;;;;;15.18;7.65;;;1.80;99.90;;;;;;4954098;28;20050;-65
2021/12/09 01:07:14;;;;;;;13.85;8.07;;;1.80;99.90;;;;;;4962885;28;20163;-66
2021/12/09 01:09:40;;;;;;;13.38;8.10;;;1.80;99.90;;;;;;4964658;28;20090;-65
2021/12/09 01:12:07;;;;;;;13.60;7.95;;;1.70;99.90;;;;;;4945604;28;20388;-65
2021/12/09 01:14:36;;;;;;;10.88;6.88;;;1.80;99.90;;;;;;4940565;28;20058;-65
2021/12/09 01:17:05;;;;;;;14.38;7.60;;;1.70;99.90;;;;;;4943418;28;20058;-65
2021/12/09 01:19:30;;;;;;;14.63;8.10;;;1.70;99.90;;;;;;4955631;28;20042;-66
2021/12/09 01:21:56;;;;;;;13.20;7.30;;;1.70;99.90;;;;;;4963660;28;20403;-66
2021/12/09 01:24:22;;;;;;;14.88;8.40;;;1.60;99.90;;;;;;4938812;28;20038;-66
2021/12/09 01:26:49;;;;;;;15.32;8.55;;;1.60;99.90;;;;;;4958408;28;20182;-66
2021/12/09 01:29:19;;;;;;;12.18;7.45;;;1.60;99.90;;;;;;4952904;28;20066;-66
2021/12/09 01:31:53;;;;;;;18.52;8.02;;;1.60;99.90;;;;;;4945643;28;20043;-65
2021/12/09 01:34:21;;;;;;;13.82;8.05;;;1.50;99.90;;;;;;4956500;28;20065;-65
2021/12/09 01:36:49;;;;;;;17.08;8.18;;;1.50;99.90;;;;;;4957840;28;20043;-65
2021/12/09 01:39:15;;;;;;;16.20;8.23;;;1.50;99.90;;;;;;4958164;28;20046;-65
2021/12/09 01:41:41;;;;;;;14.27;7.53;;;1.40;99.90;;;;;;4959235;28;20035;-66
2021/12/09 01:44:07;;;;;;;15.07;7.95;;;1.40;99.90;;;;;;4962633;28;20043;-66
2021/12/09 01:46:33;;;;;;;15.38;8.57;;;1.40;99.90;;;;;;4958144;28;20041;-66
2021/12/09 01:48:59;;;;;;;13.00;8.85;;;1.40;99.90;;;;;;4947763;28;20069;-65
2021/12/09 01:51:25;;;;;;;17.13;9.02;;;1.30;99.90;;;;;;4944432;28;20190;-65
2021/12/09 01:53:52;;;;;;;16.60;9.25;;;1.30;99.90;;;;;;4970688;28;20483;-65
2021/12/09 01:56:26;;;;;;;16.48;8.80;;;1.30;99.90;;;;;;4959008;28;20135;-66
2021/12/09 01:59:04;;;;;;;15.55;8.35;;;1.30;99.90;;;;;;4972176;28;20039;-65
2021/12/09 02:01:30;;;;;;;18.95;8.55;;;1.30;99.90;;;;;;4952068;28;20134;-66
2021/12/09 02:03:56;;;;;;;19.15;8.50;;;1.30;99.90;;;;;;4963908;28;20537;-66
2021/12/09 02:06:24;;;;;;;15.68;8.85;;;1.30;99.90;;;;;;4958427;28;20502;-66
2021/12/09 02:08:50;;;;;;;17.20;9.07;;;1.30;99.90;;;;;;4965767;28;20631;-66
2021/12/09 02:11:16;;;;;;;14.80;9.13;;;1.20;99.90;;;;;;4962584;28;20038;-66
2021/12/09 02:13:44;;;;;;;17.35;8.52;;;1.20;99.90;;;;;;4951749;28;20061;-66
2021/12/09 02:16:09;;;;;;;16.63;9.13;;;1.20;99.90;;;;;;4962347;28;20102;-66
2021/12/09 02:18:35;;;;;;;16.13;9.68;;;1.20;99.90;;;;;;4956208;28;20055;-66
2021/12/09 02:21:23;;;;;;;18.38;9.52;;;1.20;99.90;;;;;;4961036;28;20118;-66
2021/12/09 02:23:52;;;;;;;16.50;9.52;;;1.10;99.90;;;;;;4963785;28;20043;-66
2021/12/09 02:26:21;;;;;;;15.43;8.95;;;1.20;99.90;;;;;;4961590;28;20391;-66
2021/12/09 02:28:48;;;;;;;15.95;9.90;;;1.20;99.90;;;;;;4954462;28;20034;-66
2021/12/09 02:31:14;;;;;;;19.92;9.90;;;1.20;99.90;;;;;;4962805;28;20117;-66
2021/12/09 02:33:40;;;;;;;15.60;9.68;;;1.20;99.90;;;;;;4943807;28;20057;-66
2021/12/09 02:36:06;;;;;;;18.52;10.77;;;1.20;99.90;;;;;;4968481;28;20031;-66
2021/12/09 02:38:32;;;;;;;17.90;9.52;;;1.20;99.90;;;;;;4961307;28;20062;-66
2021/12/09 02:40:58;;;;;;;15.20;9.73;;;1.20;99.90;;;;;;4964173;28;20105;-66
2021/12/09 02:43:27;;;;;;;18.00;9.70;;;1.20;99.90;;;;;;4960292;28;20062;-66
2021/12/09 02:45:55;;;;;;;18.50;10.23;;;1.20;99.90;;;;;;4971033;28;20031;-66
2021/12/09 02:48:22;;;;;;;14.75;9.48;;;1.20;99.90;;;;;;4962229;28;20440;-66
2021/12/09 02:50:49;;;;;;;17.88;10.25;;;1.30;99.90;;;;;;4963847;28;20043;-66
2021/12/09 02:53:15;;;;;;;13.13;9.40;;;1.20;99.90;;;;;;4960071;28;20541;-66
2021/12/09 02:55:41;;;;;;;17.90;10.52;;;1.20;99.90;;;;;;4950721;28;20043;-66
2021/12/09 02:58:07;;;;;;;21.55;10.50;;;1.20;99.90;;;;;;4945534;28;20051;-66
2021/12/09 03:00:33;;;;;;;20.02;10.52;;;1.20;99.90;;;;;;4944991;28;20063;-66
2021/12/09 03:03:00;;;;;;;17.88;9.60;;;1.20;99.90;;;;;;4945367;28;20120;-66
2021/12/09 03:05:26;;;;;;;22.30;10.20;;;1.20;99.90;;;;;;4947510;28;20499;-66
2021/12/09 03:07:52;;;;;;;14.93;9.82;;;1.20;99.90;;;;;;4944297;28;21693;-66
2021/12/09 03:10:23;;;;;;;17.70;9.77;;;1.20;99.90;;;;;;4964891;28;20501;-66
2021/12/09 03:12:55;;;;;;;17.90;10.82;;;1.10;99.90;;;;;;4965764;28;20061;-66
2021/12/09 03:15:22;;;;;;;19.08;10.13;;;1.10;99.90;;;;;;4943442;28;20452;-65
2021/12/09 03:17:48;;;;;;;17.77;9.73;;;1.10;99.90;;;;;;4945742;28;20062;-66
2021/12/09 03:20:17;;;;;;;23.27;11.20;;;1.10;99.90;;;;;;4960526;28;20030;-66
2021/12/09 03:22:43;;;;;;;18.20;10.55;;;1.10;99.90;;;;;;4949401;28;20046;-66
2021/12/09 03:25:12;;;;;;;18.83;10.68;;;1.10;99.90;;;;;;4955550;28;20399;-66
2021/12/09 03:27:38;;;;;;;19.40;10.60;;;1.10;99.90;;;;;;4961720;28;20576;-66
2021/12/09 03:30:07;;;;;;;15.98;10.50;;;1.10;99.90;;;;;;4959157;28;20503;-66
2021/12/09 03:32:33;;;;;;;16.88;10.63;;;1.10;99.90;;;;;;4960525;28;20078;-66
2021/12/09 03:34:59;;;;;;;19.70;10.60;;;1.10;99.90;;;;;;4938240;28;20155;-66
2021/12/09 03:37:27;;;;;;;18.55;11.25;;;1.10;99.90;;;;;;4962417;28;20054;-66
2021/12/09 03:39:54;;;;;;;16.83;10.90;;;1.00;99.90;;;;;;4957504;28;20398;-67
2021/12/09 03:42:24;;;;;;;21.92;12.02;;;1.00;99.90;;;;;;4961479;28;20483;-67
2021/12/09 03:44:51;;;;;;;18.35;11.07;;;1.00;99.90;;;;;;4953851;28;20042;-67
2021/12/09 03:47:22;;;;;;;18.38;11.18;;;1.00;99.90;;;;;;4965639;28;20475;-67
2021/12/09 03:49:49;;;;;;;14.93;10.25;;;1.00;99.90;;;;;;4956922;28;20517;-67
2021/12/09 03:52:15;;;;;;;20.90;11.40;;;1.00;99.90;;;;;;4942518;28;20098;-67
2021/12/09 03:54:42;;;;;;;18.05;11.23;;;1.00;99.90;;;;;;4957315;28;20043;-67
2021/12/09 03:57:08;;;;;;;19.17;10.38;;;0.90;99.90;;;;;;4945900;28;20047;-67
2021/12/09 03:59:34;;;;;;;23.77;11.52;;;0.90;99.90;;;;;;4948229;28;20085;-67
2021/12/09 04:02:00;;;;;;;20.00;11.55;;;0.90;99.90;;;;;;4949807;28;20046;-67
2021/12/09 04:04:26;;;;;;;22.88;11.80;;;0.90;99.90;;;;;;4946392;28;20047;-67
2021/12/09 04:06:52;;;;;;;19.38;11.60;;;0.90;99.90;;;;;;4960381;28;20050;-67
2021/12/09 04:09:20;;;;;;;17.90;11.02;;;0.80;99.90;;;;;;4963719;28;20506;-67
2021/12/09 04:11:46;;;;;;;20.73;10.65;;;0.80;99.90;;;;;;4942510;28;20039;-67
2021/12/09 04:14:12;;;;;;;19.10;11.48;;;0.80;99.90;;;;;;4965083;28;20157;-67
2021/12/09 04:16:39;;;;;;;19.25;11.20;;;0.80;99.90;;;;;;4939706;28;20145;-67
2021/12/09 04:19:07;;;;;;;21.80;11.50;;;0.70;99.90;;;;;;4961763;28;20042;-67
2021/12/09 04:21:34;;;;;;;22.58;11.65;;;0.80;99.90;;;;;;4953447;28;20038;-67
2021/12/09 04:24:00;;;;;;;24.27;11.25;;;0.80;99.90;;;;;;4959376;28;20497;-67
2021/12/09 04:26:25;;;;;;;19.95;10.68;;;0.70;99.90;;;;;;4958064;28;20039;-67
2021/12/09 04:28:51;;;;;;;17.35;11.60;;;0.70;99.90;;;;;;4941652;28;20047;-67
2021/12/09 04:31:17;;;;;;;18.02;10.45;;;0.70;99.90;;;;;;4957998;28;20035;-67
2021/12/09 04:33:43;;;;;;;22.20;11.25;;;0.70;99.90;;;;;;4963302;28;20043;-67
2021/12/09 04:36:10;;;;;;;21.98;11.90;;;0.70;99.90;;;;;;4947512;28;20046;-67
2021/12/09 04:38:36;;;;;;;21.73;12.00;;;0.60;99.90;;;;;;4946027;28;20079;-67
2021/12/09 04:41:03;;;;;;;28.83;12.38;;;0.70;99.90;;;;;;4947431;28;20042;-67
2021/12/09 04:43:28;;;;;;;22.80;11.90;;;0.60;99.90;;;;;;4957352;28;20038;-67
2021/12/09 04:45:54;;;;;;;22.65;12.35;;;0.60;99.90;;;;;;4963440;28;20398;-67
2021/12/09 04:48:20;;;;;;;21.85;12.23;;;0.60;99.90;;;;;;4957707;28;20043;-67
2021/12/09 04:50:46;;;;;;;19.67;12.95;;;0.60;99.90;;;;;;4961609;28;20101;-67
2021/12/09 04:53:12;;;;;;;23.45;12.10;;;0.60;99.90;;;;;;4945780;28;20510;-67
2021/12/09 04:55:38;;;;;;;26.77;13.88;;;0.60;99.90;;;;;;4964744;28;20097;-67
2021/12/09 04:58:07;;;;;;;20.60;12.32;;;0.60;99.90;;;;;;4952593;28;20436;-67
2021/12/09 05:00:38;;;;;;;23.00;12.30;;;0.60;99.90;;;;;;4943622;28;20178;-67
2021/12/09 05:03:10;;;;;;;22.23;12.80;;;0.60;99.90;;;;;;4933393;28;20073;-67
2021/12/09 05:05:43;;;;;;;21.73;12.65;;;0.60;99.90;;;;;;4948563;28;20590;-67
2021/12/09 05:08:12;;;;;;;22.85;12.55;;;0.60;99.90;;;;;;4942810;28;20034;-67
2021/12/09 05:13:18;;;;;;;25.40;13.02;;;0.60;99.90;;;;;;4954468;28;20058;-67
2021/12/09 05:15:45;;;;;;;24.50;12.32;;;0.60;99.90;;;;;;4963646;28;20051;-67
2021/12/09 05:18:12;;;;;;;27.48;14.13;;;0.50;99.90;;;;;;4938909;28;20042;-67
2021/12/09 05:20:38;;;;;;;22.65;12.70;;;0.50;99.90;;;;;;4962508;28;20047;-67
2021/12/09 05:23:03;;;;;;;20.85;11.45;;;0.50;99.90;;;;;;4953637;28;20547;-67
2021/12/09 05:25:30;;;;;;;29.17;13.48;;;0.50;99.90;;;;;;4948146;28;20463;-67
2021/12/09 05:27:56;;;;;;;23.90;13.18;;;0.50;99.90;;;;;;4964121;28;20041;-67
2021/12/09 05:30:37;;;;;;;25.85;14.02;;;0.50;99.90;;;;;;4959456;28;20122;-67
2021/12/09 05:33:03;;;;;;;23.92;12.68;;;0.50;99.90;;;;;;4948899;28;20042;-67
2021/12/09 05:35:29;;;;;;;22.67;13.40;;;0.50;99.90;;;;;;4958877;28;20054;-67
2021/12/09 05:37:54;;;;;;;23.13;12.80;;;0.50;99.90;;;;;;4963245;28;20050;-67
2021/12/09 05:40:21;;;;;;;23.50;13.52;;;0.40;99.90;;;;;;4957485;28;20043;-67
2021/12/09 05:42:47;;;;;;;21.60;13.55;;;0.40;99.90;;;;;;4964905;28;20045;-67
2021/12/09 05:45:13;;;;;;;24.00;13.93;;;0.40;99.90;;;;;;4952891;28;20077;-67
2021/12/09 05:47:39;;;;;;;25.33;13.30;;;0.40;99.90;;;;;;4942066;28;20495;-67
2021/12/09 05:50:06;;;;;;;25.27;14.35;;;0.40;99.90;;;;;;4959449;28;20045;-67
2021/12/09 05:52:32;;;;;;;22.67;14.93;;;0.30;99.90;;;;;;4961596;28;20535;-67
2021/12/09 05:54:57;;;;;;;21.65;12.98;;;0.30;99.90;;;;;;4940953;28;20038;-67
2021/12/09 05:57:23;;;;;;;24.02;12.35;;;0.30;99.90;;;;;;4946893;28;20097;-67
2021/12/09 05:59:49;;;;;;;26.63;13.77;;;0.30;99.90;;;;;;4953594;28;20043;-67
2021/12/09 06:02:16;;;;;;;32.17;15.18;;;0.30;99.90;;;;;;4962618;28;20038;-67
2021/12/09 06:04:43;;;;;;;26.77;14.52;;;0.30;99.90;;;;;;4941812;28;20492;-67
2021/12/09 06:07:10;;;;;;;25.17;13.18;;;0.30;99.90;;;;;;4963391;28;20462;-67
2021/12/09 06:09:35;;;;;;;32.03;14.48;;;0.20;99.90;;;;;;4965039;28;20130;-67
2021/12/09 06:12:02;;;;;;;28.45;14.70;;;0.20;99.90;;;;;;4940770;28;20130;-67
2021/12/09 06:14:28;;;;;;;23.33;13.30;;;0.20;99.90;;;;;;4964040;28;20046;-67
2021/12/09 06:16:54;;;;;;;20.98;13.77;;;0.20;99.90;;;;;;4956600;28;20407;-67
2021/12/09 06:19:21;;;;;;;30.92;13.20;;;0.20;99.90;;;;;;4961288;28;20043;-67
2021/12/09 06:21:47;;;;;;;23.02;13.65;;;0.30;99.90;;;;;;4956457;28;20050;-67
2021/12/09 06:24:13;;;;;;;26.48;13.50;;;0.20;99.90;;;;;;4959314;28;20062;-67
2021/12/09 06:26:39;;;;;;;26.25;13.55;;;0.30;99.90;;;;;;4953118;28;20044;-67
2021/12/09 06:29:07;;;;;;;28.80;14.23;;;0.30;99.90;;;;;;4961622;28;20038;-67
2021/12/09 06:31:34;;;;;;;28.13;12.90;;;0.40;99.90;;;;;;4955982;28;20035;-67
2021/12/09 06:33:59;;;;;;;28.38;14.65;;;0.40;99.90;;;;;;4961295;28;20043;-67
2021/12/09 06:36:25;;;;;;;23.40;12.77;;;0.40;99.90;;;;;;4938143;28;20043;-67
2021/12/09 06:38:52;;;;;;;29.73;13.60;;;0.40;99.90;;;;;;4967817;28;20042;-67
2021/12/09 06:41:18;;;;;;;25.02;13.38;;;0.40;99.90;;;;;;4942671;28;20559;-67
2021/12/09 06:43:44;;;;;;;29.30;13.73;;;0.40;99.90;;;;;;4965697;28;20042;-67
2021/12/09 06:46:12;;;;;;;29.30;13.77;;;0.40;99.90;;;;;;4943226;28;20043;-67
2021/12/09 06:48:39;;;;;;;32.72;14.40;;;0.50;99.90;;;;;;4965015;28;20507;-67
2021/12/09 06:51:06;;;;;;;24.27;13.18;;;0.60;99.90;;;;;;4964896;28;20050;-67
2021/12/09 06:53:32;;;;;;;28.40;14.07;;;0.60;99.90;;;;;;4939461;28;20105;-67
2021/12/09 06:55:59;;;;;;;27.77;12.77;;;0.60;99.90;;;;;;4951761;28;20113;-66
2021/12/09 06:58:26;;;;;;;23.35;13.38;;;0.50;99.90;;;;;;4958168;28;20038;-66
2021/12/09 07:00:54;;;;;;;24.23;12.90;;;0.60;99.90;;;;;;4959584;28;20117;-67
2021/12/09 07:03:21;;;;;;;25.88;12.50;;;0.50;99.90;;;;;;4953485;28;20059;-67
2021/12/09 07:05:49;;;;;;;20.45;12.73;;;0.50;99.90;;;;;;4947827;28;20047;-67
2021/12/09 07:08:15;;;;;;;24.98;13.10;;;0.50;99.90;;;;;;4939414;28;20083;-67
2021/12/09 07:10:41;;;;;;;25.08;13.23;;;0.50;99.90;;;;;;4943222;28;20055;-66
2021/12/09 07:13:08;;;;;;;30.30;12.75;;;0.50;99.90;;;;;;4942717;28;20047;-67
2021/12/09 07:15:35;;;;;;;21.95;12.52;;;0.50;99.90;;;;;;4946965;28;20448;-66
2021/12/09 07:18:01;;;;;;;24.20;12.40;;;0.50;99.90;;;;;;4953404;28;20101;-66
2021/12/09 07:20:27;;;;;;;24.60;12.70;;;0.50;99.90;;;;;;4962506;28;23015;-66
2021/12/09 07:22:54;;;;;;;29.17;12.20;;;0.50;99.90;;;;;;4959145;28;20058;-66
2021/12/09 07:25:21;;;;;;;22.50;12.82;;;0.50;99.90;;;;;;4946988;28;20042;-66
2021/12/09 07:27:47;;;;;;;24.60;12.30;;;0.50;99.90;;;;;;4958063;28;20042;-66
2021/12/09 07:30:15;;;;;;;25.08;11.95;;;0.40;99.90;;;;;;4964306;28;20070;-66
2021/12/09 07:32:41;;;;;;;22.55;12.02;;;0.50;99.90;;;;;;4951472;28;20118;-66
2021/12/09 07:35:08;;;;;;;25.80;12.57;;;0.40;99.90;;;;;;4958326;28;20039;-66
2021/12/09 07:37:37;;;;;;;21.60;11.65;;;0.40;99.90;;;;;;4965357;28;20123;-66
2021/12/09 07:40:05;;;;;;;30.98;12.07;;;0.40;99.90;;;;;;4956611;28;20047;-66
2021/12/09 07:42:31;;;;;;;24.98;12.15;;;0.30;99.90;;;;;;4946962;28;20127;-66
2021/12/09 07:44:57;;;;;;;27.40;14.15;;;0.40;99.90;;;;;;4955215;28;20117;-66
2021/12/09 07:47:23;;;;;;;30.85;13.82;;;0.40;99.90;;;;;;4965483;28;20157;-66
2021/12/09 07:49:48;;;;;;;26.95;13.20;;;0.40;99.90;;;;;;4943157;28;20030;-66
2021/12/09 07:52:14;;;;;;;29.67;12.55;;;0.40;99.90;;;;;;4949522;28;20090;-66
2021/12/09 07:54:40;;;;;;;20.65;11.77;;;0.40;99.90;;;;;;4957801;28;20051;-66
2021/12/09 07:57:06;;;;;;;26.00;13.02;;;0.40;99.90;;;;;;4964333;28;20047;-66
2021/12/09 07:59:32;;;;;;;26.30;12.43;;;0.40;99.90;;;;;;4959381;28;20039;-66
2021/12/09 08:01:58;;;;;;;25.42;12.10;;;0.40;99.90;;;;;;4948753;28;20380;-66
2021/12/09 08:04:23;;;;;;;25.95;12.38;;;0.40;99.90;;;;;;4938768;28;20129;-66
2021/12/09 08:06:50;;;;;;;18.80;12.02;;;0.40;99.90;;;;;;4962355;28;20039;-66
2021/12/09 08:09:15;;;;;;;27.05;13.40;;;0.40;99.90;;;;;;4963455;28;20069;-66
2021/12/09 08:11:43;;;;;;;25.65;13.10;;;0.40;99.90;;;;;;4957310;28;20099;-66
2021/12/09 08:14:15;;;;;;;31.08;13.02;;;0.40;99.90;;;;;;4935237;28;20072;-66
2021/12/09 08:16:42;;;;;;;23.88;11.68;;;0.50;99.90;;;;;;4940561;28;20419;-66
2021/12/09 08:19:12;;;;;;;26.58;11.85;;;0.40;99.90;;;;;;4937939;28;20036;-66
2021/12/09 08:21:39;;;;;;;24.63;12.40;;;0.50;99.90;;;;;;4942403;28;20073;-66
2021/12/09 08:24:07;;;;;;;24.58;11.98;;;0.50;99.90;;;;;;4943279;28;20110;-66
2021/12/09 08:26:33;;;;;;;34.03;13.20;;;0.50;99.90;;;;;;4938188;28;20027;-66
2021/12/09 08:28:59;;;;;;;27.88;12.57;;;0.50;99.90;;;;;;4940413;28;20043;-66
2021/12/09 08:31:29;;;;;;;23.55;12.70;;;0.50;99.90;;;;;;4939995;28;20043;-66
2021/12/09 08:33:55;;;;;;;24.13;12.30;;;0.70;99.90;;;;;;4941835;29;20047;-66
2021/12/09 08:36:21;;;;;;;20.60;11.13;;;0.70;99.90;;;;;;4939554;28;20067;-66
2021/12/09 08:38:47;;;;;;;26.95;11.88;;;0.60;99.90;;;;;;4940633;28;20111;-66
2021/12/09 08:41:15;;;;;;;24.10;12.18;;;0.70;99.90;;;;;;4938942;28;20129;-66
2021/12/09 08:43:41;;;;;;;27.23;12.32;;;0.70;99.90;;;;;;4955144;28;20110;-66
2021/12/09 08:46:06;;;;;;;27.92;12.45;;;0.70;99.90;;;;;;4935146;28;20406;-66
2021/12/09 08:48:33;;;;;;;24.90;11.52;;;0.80;99.90;;;;;;4944031;28;20043;-66
2021/12/09 08:50:58;;;;;;;30.55;11.80;;;0.80;99.90;;;;;;4936766;28;20050;-66
2021/12/09 08:53:25;;;;;;;22.63;11.43;;;0.80;99.90;;;;;;4934777;28;20524;-66
2021/12/09 08:55:52;;;;;;;20.88;12.02;;;0.80;99.90;;;;;;4960027;28;20501;-66
2021/12/09 08:58:20;;;;;;;21.48;11.77;;;0.80;99.90;;;;;;4934186;28;20085;-66
2021/12/09 09:00:47;;;;;;;20.52;11.13;;;0.90;99.90;;;;;;4947325;28;20543;-66
2021/12/09 09:03:14;;;;;;;20.10;11.82;;;0.90;99.90;;;;;;4935512;28;20043;-66
2021/12/09 09:05:42;;;;;;;24.55;11.35;;;1.00;99.90;;;;;;4940238;29;20134;-66
2021/12/09 09:08:08;;;;;;;22.52;11.88;;;1.00;99.90;;;;;;4934210;28;20043;-66
2021/12/09 09:10:40;;;;;;;24.23;12.38;;;1.00;99.90;;;;;;4942729;28;20412;-66
2021/12/09 09:13:06;;;;;;;20.55;11.73;;;1.00;99.90;;;;;;4932082;28;20066;-66
2021/12/09 09:15:32;;;;;;;21.35;11.68;;;1.10;99.90;;;;;;4955065;28;20047;-66
2021/12/09 09:17:59;;;;;;;22.73;11.25;;;1.10;99.90;;;;;;4938765;28;20043;-66
2021/12/09 09:20:28;;;;;;;21.95;10.40;;;1.20;99.90;;;;;;4940052;29;20126;-66
2021/12/09 09:22:54;;;;;;;17.27;9.93;;;1.20;99.90;;;;;;4928778;28;20114;-66
2021/12/09 09:25:29;;;;;;;19.98;11.38;;;1.30;99.90;;;;;;4943595;28;20043;-66
2021/12/09 09:27:59;;;;;;;22.55;11.40;;;1.30;99.90;;;;;;4942007;28;20130;-66
2021/12/09 09:30:33;;;;;;;22.83;10.02;;;1.30;99.90;;;;;;4945897;29;20131;-66
2021/12/09 09:32:59;;;;;;;19.52;9.88;;;1.30;99.90;;;;;;4938647;28;20388;-66
2021/12/09 09:35:25;;;;;;;21.88;9.75;;;1.30;99.90;;;;;;4938616;28;20039;-66
2021/12/09 09:37:50;;;;;;;18.65;9.68;;;1.40;99.90;;;;;;4936508;28;20039;-66
2021/12/09 09:40:27;;;;;;;16.58;9.25;;;1.50;99.90;;;;;;4940757;28;20463;-66
2021/12/09 09:42:59;;;;;;;17.77;9.00;;;1.50;99.90;;;;;;4939122;28;20067;-66
2021/12/09 09:45:25;;;;;;;17.63;9.65;;;1.60;99.90;;;;;;4943372;28;20079;-65
2021/12/09 09:47:52;;;;;;;22.73;8.85;;;1.70;99.90;;;;;;4938871;28;20404;-65
2021/12/09 09:50:18;;;;;;;16.42;8.75;;;1.70;99.90;;;;;;4939290;28;20031;-65
2021/12/09 09:52:44;;;;;;;22.15;9.82;;;1.80;99.90;;;;;;4940837;28;20526;-66
2021/12/09 09:55:14;;;;;;;20.85;9.57;;;1.80;99.90;;;;;;4941911;28;20066;-66
2021/12/09 09:57:40;;;;;;;18.38;8.25;;;1.90;99.90;;;;;;4943985;28;20121;-66
2021/12/09 10:00:11;;;;;;;13.18;8.65;;;2.00;99.90;;;;;;4935350;28;20548;-65
2021/12/09 10:02:37;;;;;;;16.63;8.38;;;2.10;99.90;;;;;;4938040;29;20099;-66
2021/12/09 10:05:06;;;;;;;15.85;8.52;;;2.10;99.90;;;;;;4939367;28;20420;-66
2021/12/09 10:07:33;;;;;;;17.90;8.93;;;2.20;99.90;;;;;;4939416;28;20043;-66
2021/12/09 10:10:00;;;;;;;15.30;8.45;;;2.20;99.90;;;;;;4940550;28;20047;-66
2021/12/09 10:12:26;;;;;;;12.32;7.93;;;2.30;99.90;;;;;;4946250;28;20050;-66
2021/12/09 10:14:54;;;;;;;16.00;7.47;;;2.40;99.90;;;;;;4953740;28;20047;-66
2021/12/09 10:17:24;;;;;;;18.65;7.32;;;2.40;99.90;;;;;;4961139;28;20409;-66
2021/12/09 10:19:54;;;;;;;14.20;7.80;;;2.50;99.90;;;;;;4937899;28;20047;-66
2021/12/09 10:22:23;;;;;;;13.23;8.32;;;2.60;99.90;;;;;;4963683;28;20447;-66
2021/12/09 10:24:51;;;;;;;15.82;7.50;;;2.60;99.90;;;;;;4940875;28;20046;-67
2021/12/09 10:27:33;;;;;;;18.10;7.75;;;2.60;99.90;;;;;;4949089;28;20046;-66
2021/12/09 10:30:16;;;;;;;14.88;7.05;;;2.70;99.90;;;;;;4960474;28;20158;-67
2021/12/09 10:32:43;;;;;;;16.52;7.75;;;2.70;99.90;;;;;;4960945;28;20094;-66
2021/12/09 10:35:20;;;;;;;10.95;6.80;;;2.70;99.90;;;;;;4963050;28;20038;-66
2021/12/09 10:37:48;;;;;;;14.65;6.38;;;2.70;99.90;;;;;;4945439;28;20054;-66
2021/12/09 10:40:25;;;;;;;12.85;6.78;;;2.80;99.90;;;;;;4964280;28;20070;-66
2021/12/09 10:43:03;;;;;;;16.95;7.50;;;2.80;99.90;;;;;;4947552;28;20058;-66
2021/12/09 10:45:33;;;;;;;15.82;6.97;;;2.80;99.90;;;;;;4958687;28;20039;-66
2021/12/09 10:48:30;;;;;;;13.90;7.05;;;2.80;99.90;;;;;;4961469;28;20369;-66
2021/12/09 10:55:54;;;;;;;19.15;7.18;;;2.80;99.90;;;;;;4962328;28;20042;-65
2021/12/09 10:58:27;;;;;;;11.80;7.18;;;2.90;99.90;;;;;;4950108;28;20058;-65
2021/12/09 11:01:07;;;;;;;14.98;7.63;;;2.90;99.90;;;;;;4964629;28;20110;-65
2021/12/09 11:03:40;;;;;;;16.25;8.68;;;2.90;99.90;;;;;;4947835;28;20062;-65
2021/12/09 11:06:19;;;;;;;15.48;9.38;;;3.00;99.90;;;;;;4943209;28;20395;-65
2021/12/09 11:08:50;;;;;;;16.60;8.05;;;3.00;99.90;;;;;;4965507;28;20039;-65
2021/12/09 11:11:30;;;;;;;17.70;8.68;;;3.00;99.90;;;;;;4948223;28;20054;-65
2021/12/09 11:13:57;;;;;;;26.23;10.85;;;3.00;99.90;;;;;;4945135;28;20046;-65
2021/12/09 11:16:37;;;;;;;22.90;9.90;;;3.10;99.90;;;;;;4961238;28;20502;-65
2021/12/09 11:19:15;;;;;;;13.52;7.85;;;3.10;99.90;;;;;;4966308;28;20062;-65
2021/12/09 11:21:53;;;;;;;17.63;7.53;;;3.20;99.90;;;;;;4964569;28;20055;-65
2021/12/09 11:24:21;;;;;;;14.70;7.43;;;3.30;99.90;;;;;;4966164;28;20038;-65
2021/12/09 11:26:57;;;;;;;17.25;7.45;;;3.30;99.90;;;;;;4964024;28;20035;-65
2021/12/09 11:29:45;;;;;;;15.10;7.82;;;3.30;99.90;;;;;;4960149;28;20051;-65
2021/12/09 11:32:19;;;;;;;14.18;8.07;;;3.40;99.90;;;;;;4955712;28;20034;-65
2021/12/09 11:34:55;;;;;;;21.08;9.15;;;3.40;99.90;;;;;;4959414;28;20428;-65
2021/12/09 11:40:15;;;;;;;19.73;8.50;;;3.40;99.90;;;;;;4959456;28;20042;-65
2021/12/09 11:42:52;;;;;;;16.02;8.15;;;3.40;99.90;;;;;;4954925;28;20057;-65
2021/12/09 11:45:24;;;;;;;17.58;8.52;;;3.40;99.90;;;;;;4960729;28;20049;-65
2021/12/09 11:47:51;;;;;;;22.10;9.77;;;3.40;99.90;;;;;;4953115;28;20159;-65
2021/12/09 11:50:22;;;;;;;16.95;9.43;;;3.40;99.90;;;;;;4963829;28;20081;-65
2021/12/09 11:52:51;;;;;;;16.70;9.43;;;3.40;99.90;;;;;;4959809;28;20090;-65
2021/12/09 11:55:20;;;;;;;17.52;8.82;;;3.40;99.90;;;;;;4959296;28;20114;-65
2021/12/09 11:57:54;;;;;;;16.55;10.32;;;3.40;99.90;;;;;;4962404;28;20046;-65
2021/12/09 12:11:59;;;;;;;19.98;9.43;;;3.40;99.90;;;;;;4963527;28;20477;-65
2021/12/09 12:14:35;;;;;;;17.55;9.57;;;3.40;99.90;;;;;;4956547;28;20055;-65
2021/12/09 12:17:10;;;;;;;18.05;10.00;;;3.50;99.90;;;;;;4961554;28;20051;-65
2021/12/09 12:25:44;;;;;;;17.58;9.77;;;3.50;99.90;;;;;;4930435;28;20047;-65
2021/12/09 12:31:40;;;;;;;19.70;10.60;;;3.50;99.90;;;;;;4963622;28;20047;-65
2021/12/09 12:39:31;;;;;;;21.92;10.70;;;3.60;99.90;;;;;;4962440;28;20495;-66
2021/12/09 12:42:15;;;;;;;20.98;10.18;;;3.60;99.90;;;;;;4960137;28;20051;-66
2021/12/09 12:48:28;;;;;;;22.90;11.18;;;3.70;99.90;;;;;;4965249;28;20503;-66
2021/12/09 12:51:35;;;;;;;24.30;11.52;;;3.70;99.90;;;;;;4944022;28;20042;-66
2021/12/09 12:54:13;;;;;;;21.27;12.07;;;3.70;99.90;;;;;;4945313;28;20433;-66
2021/12/09 12:56:42;;;;;;;18.60;11.98;;;3.70;99.90;;;;;;4959568;28;20038;-66
2021/12/09 12:59:10;;;;;;;20.40;12.18;;;3.70;99.90;;;;;;4959516;28;20038;-66
2021/12/09 13:01:57;;;;;;;22.88;12.50;;;3.70;99.90;;;;;;4957413;28;20101;-66
2021/12/09 13:10:45;;;;;;;19.08;12.27;;;3.80;99.90;;;;;;4953069;28;20487;-66
2021/12/09 13:13:21;;;;;;;24.70;13.55;;;3.90;99.90;;;;;;4942065;28;20051;-66
2021/12/09 13:16:04;;;;;;;24.73;13.55;;;3.90;99.90;;;;;;4963464;28;20061;-65
2021/12/09 13:19:02;;;;;;;24.00;13.45;;;4.00;99.90;;;;;;4953901;28;20546;-65
2021/12/09 13:21:37;;;;;;;25.10;13.32;;;4.00;99.90;;;;;;4958773;28;20046;-66
2021/12/09 13:24:19;;;;;;;25.73;13.23;;;4.00;99.90;;;;;;4962579;28;20039;-66
2021/12/09 13:27:11;;;;;;;25.30;14.43;;;4.00;99.90;;;;;;4952871;28;20507;-66
2021/12/09 13:29:52;;;;;;;27.15;14.18;;;4.00;99.90;;;;;;4965621;28;20097;-66
2021/12/09 13:35:51;;;;;;;22.30;13.45;;;4.00;99.90;;;;;;4959209;28;20050;-66
2021/12/09 13:46:30;;;;;;;29.52;12.20;;;4.10;99.90;;;;;;4961443;28;20057;-66